KBOI/BOI METAR and TAF weather

Enter ICAO airport designator
Station Type Date Time Source
KBOI METAR 2019/06/18 15:53 UTC NOAA

KBOI 181553Z 29008KT 10SM CLR 22/08 A3005 RMK AO2 SLP148 T02220083


Station Type Date Time Source
KBOI Decoded METAR 2019/06/18 15:53 UTC NOAA

BOISE AIR TERMINAL, ID, United States (KBOI) 43-34N 116-14W 875M
Jun 18, 2019 - 11:53 AM EDT / 2019.06.18 1553 UTC
Wind: from the WNW (290 degrees) at 9 MPH (8 KT):0
Visibility: 10 mile(s):0
Sky conditions: clear
Temperature: 72.0 F (22.2 C)
Dew Point: 46.9 F (8.3 C)
Relative Humidity: 40%
Pressure (altimeter): 30.05 in. Hg (1017 hPa)
ob: KBOI 181553Z 29008KT 10SM CLR 22/08 A3005 RMK AO2 SLP148 T02220083
cycle: 16

Station Type Date Time Source
KBOI TAF 2019/06/18 12:30 UTC NOAA

TAF KBOI 181129Z 1812/1912 VRB05KT P6SM SCT200
FM181900 32014G22KT P6SM SKC
FM190300 30008KT P6SM SKC

Example: see airport list